Latest Weather Observations for Gympie

IDQ60901

Issued at 9:21 pm EST Saturday 29 April 2017 (issued every 10 minutes, with the page automatically refreshed every 10 minutes)

About weather observations | Map of Brisbane area stations | Latest observations for Brisbane area | Other Formats
Station Details ID: 040093 Name: GYMPIE Lat: -26.18 Lon: 152.64 Height: 64.5 m
Data from the previous 72 hours. | See also: Recent months at Gympie
Date/Time
EST
Temp
°C
App
Temp
°C
Dew
Point
°C
Rel
Hum
%
Delta-T
°C
Wind Press
QNH
hPa
Press
MSL
hPa
Rain since
9am
mm
Dir  Spd
km/h
Gust
km/h
Spd
kts
Gust
kts
29/09:00pm 14.4 15.4 13.3 93 0.6 CALM 0 0 0 0 1019.0 1018.8 0.0
29/08:30pm 15.1 16.1 13.1 88 1.1 CALM 0 0 0 0 1019.0 1018.8 0.0
29/08:00pm 15.4 16.4 13.1 86 1.3 CALM 0 0 0 0 1018.8 1018.6 0.0
29/07:30pm 16.7 17.8 13.4 81 1.9 CALM 0 2 0 1 1018.8 1018.6 0.0
29/07:00pm 17.9 19.1 13.8 77 2.3 CALM 0 0 0 0 1018.5 1018.3 0.0
29/06:30pm 19.3 20.1 13.7 70 3.2 E 2 6 1 3 1018.3 1018.1 0.0
29/06:00pm 20.4 21.2 13.8 66 3.8 NNE 2 6 1 3 1017.9 1017.7 0.0
29/05:30pm 21.3 21.8 14.0 63 4.2 ENE 4 9 2 5 1017.6 1017.4 0.0
29/05:00pm 22.4 21.1 9.2 43 7.1 SE 6 9 3 5 1017.2 1017.0 0.0
29/04:30pm 23.9 22.3 8.7 38 8.2 SE 7 19 4 10 1016.9 1016.7 0.0
29/04:00pm 24.6 22.6 8.5 36 8.6 SSE 9 17 5 9 1016.7 1016.5 0.0
29/03:30pm 25.2 23.5 9.9 38 8.5 SE 9 17 5 9 1016.5 1016.3 0.0
29/03:00pm 25.7 24.4 11.1 40 8.2 SSE 9 17 5 9 1016.5 1016.3 0.0
29/02:30pm 25.4 24.3 11.9 43 7.7 SE 9 17 5 9 1016.5 1016.3 0.0
29/02:00pm 25.4 24.3 11.9 43 7.7 SSE 9 17 5 9 1016.9 1016.7 0.0
29/01:30pm 25.3 24.9 12.5 45 7.4 SSE 6 13 3 7 1017.2 1017.0 0.0
29/01:00pm 25.1 24.3 10.9 41 8.0 SSE 6 13 3 7 1017.6 1017.4 0.0
29/12:30pm 24.8 22.8 10.3 40 8.0 S 11 22 6 12 1018.0 1017.8 0.0
29/12:00pm 24.6 24.0 12.2 46 7.1 SSE 7 15 4 8 1018.4 1018.2 0.0
29/11:30am 24.1 22.8 12.4 48 6.7 SSE 11 19 6 10 1018.8 1018.6 0.0
29/11:00am 23.4 21.8 12.7 51 6.1 S 13 24 7 13 1019.1 1018.9 0.0
29/10:30am 23.1 22.1 13.3 54 5.7 SSE 11 22 6 12 1019.4 1019.2 0.0
29/10:00am 22.4 21.4 13.5 57 5.1 SSE 11 24 6 13 1019.5 1019.3 0.0
29/09:30am 21.8 20.0 13.4 59 4.8 SSE 15 28 8 15 1019.5 1019.3 0.0
29/09:00am 20.9 19.4 13.1 61 4.4 SSE 13 24 7 13 1019.6 1019.4 0.0
29/08:30am 19.9 18.4 13.1 65 3.9 S 13 24 7 13 1019.4 1019.2 0.0
29/08:00am 18.1 19.4 14.0 77 2.3 CALM 0 0 0 0 1019.1 1018.9 0.0
29/07:30am 15.4 16.8 14.3 93 0.6 CALM 0 0 0 0 1018.8 1018.6 0.0
29/07:00am 11.9 12.4 11.6 98 0.2 CALM 0 0 0 0 1018.1 1017.9 0.0
29/06:30am 11.7 12.1 11.1 96 0.3 CALM 0 0 0 0 1017.9 1017.7 0.0
29/06:00am 11.7 11.7 11.1 96 0.3 SW 2 4 1 2 1017.4 1017.2 0.0
29/05:30am 11.8 12.1 11.0 95 0.4 CALM 0 0 0 0 1017.0 1016.8 0.0
29/05:00am 12.1 11.4 11.3 95 0.4 N 6 7 3 4 1016.8 1016.6 0.0
29/04:30am 12.3 12.0 11.4 94 0.5 N 4 6 2 3 1016.4 1016.2 0.0
29/04:00am 12.0 11.3 11.4 96 0.3 N 6 6 3 3 1016.1 1015.9 0.0
29/03:30am 12.0 12.3 10.9 93 0.6 CALM 0 0 0 0 1016.1 1015.9 0.0
29/03:00am 12.4 12.1 11.6 95 0.4 N 4 4 2 2 1016.2 1016.0 0.0
29/02:30am 12.8 12.6 11.7 93 0.6 N 4 6 2 3 1016.3 1016.1 0.0
29/02:00am 12.5 12.7 10.7 89 0.9 CALM 0 0 0 0 1016.5 1016.3 0.0
29/01:30am 13.1 13.1 12.3 95 0.4 N 4 6 2 3 1016.7 1016.5 0.0
29/01:00am 13.3 13.5 12.0 92 0.7 SSW 2 2 1 1 1016.9 1016.7 0.0
29/12:30am 14.0 14.5 11.7 86 1.2 CALM 0 0 0 0 1017.1 1016.9 0.0
29/12:00am 14.9 15.3 12.4 85 1.4 N 2 2 1 1 1017.1 1016.9 0.0
 
Date/Time
EST
Temp
°C
App
Temp
°C
Dew
Point
°C
Rel
Hum
%
Delta-T
°C
Wind Press
QNH
hPa
Press
MSL
hPa
Rain since
9am
mm
Dir  Spd
km/h
Gust
km/h
Spd
kts
Gust
kts
28/11:30pm 15.8 15.8 12.4 80 1.9 N 4 7 2 4 1017.1 1016.9 0.0
28/11:00pm 17.1 17.7 11.8 71 2.9 CALM 0 2 0 1 1017.2 1017.0 0.0
28/10:30pm 17.5 17.4 12.0 70 3.0 S 4 7 2 4 1017.3 1017.1 0.0
28/10:00pm 17.8 17.3 12.5 71 2.9 S 7 13 4 7 1017.5 1017.3 0.0
28/09:30pm 17.3 16.8 12.6 74 2.6 SSW 7 9 4 5 1017.4 1017.2 0.0
28/09:00pm 17.1 16.8 12.6 75 2.5 SW 6 7 3 4 1017.2 1017.0 0.0
28/08:30pm 18.0 17.5 12.0 68 3.3 SW 6 6 3 3 1017.2 1017.0 0.0
28/08:00pm 19.0 19.0 12.3 65 3.7 WSW 4 6 2 3 1016.9 1016.7 0.0
28/07:30pm 19.3 19.1 11.8 62 4.2 SW 4 7 2 4 1016.7 1016.5 0.0
28/07:00pm 19.1 18.9 11.7 62 4.1 SSW 4 7 2 4 1016.5 1016.3 0.0
28/06:30pm 20.0 18.8 11.5 58 4.7 S 9 15 5 8 1016.2 1016.0 0.0
28/06:00pm 20.1 19.8 11.3 57 4.8 SSW 4 7 2 4 1015.7 1015.5 0.0
28/05:30pm 20.7 19.7 11.1 54 5.3 S 7 13 4 7 1015.3 1015.1 0.0
28/05:00pm 21.9 20.4 10.7 49 6.2 S 9 20 5 11 1014.8 1014.6 0.0
28/04:30pm 23.2 21.5 9.9 43 7.3 S 9 15 5 8 1014.6 1014.4 0.0
28/04:00pm 23.5 20.2 8.0 37 8.2 SSE 15 24 8 13 1014.3 1014.1 0.0
28/03:30pm 24.2 22.4 9.4 39 8.1 S 9 15 5 8 1014.2 1014.0 0.0
28/03:00pm 24.7 23.2 10.6 41 7.9 SSE 9 17 5 9 1014.1 1013.9 0.0
28/02:30pm 24.5 23.0 9.3 38 8.3 S 7 13 4 7 1014.0 1013.8 0.0
28/02:00pm 24.5 23.0 10.4 41 7.8 SSE 9 17 5 9 1014.1 1013.9 0.0
28/01:30pm 24.1 22.0 9.7 40 7.9 SW 11 20 6 11 1014.2 1014.0 0.0
28/01:00pm 24.1 23.0 12.1 47 6.8 SSE 9 13 5 7 1014.4 1014.2 0.0
28/12:30pm 23.4 22.0 10.8 45 7.0 SSW 9 13 5 7 1014.9 1014.7 0.0
28/12:00pm 22.8 21.3 10.6 46 6.7 SW 9 17 5 9 1015.2 1015.0 0.0
28/11:30am 22.8 21.6 11.5 49 6.3 SSW 9 17 5 9 1015.5 1015.3 0.0
28/11:00am 21.8 20.8 10.9 50 6.0 SW 7 13 4 7 1016.1 1015.9 0.0
28/10:30am 20.7 19.0 9.9 50 5.8 SSW 9 15 5 8 1016.8 1016.6 0.0
28/10:00am 19.4 17.6 9.3 52 5.3 SSW 9 17 5 9 1017.2 1017.0 0.0
28/09:30am 18.3 16.0 9.1 55 4.8 S 11 19 6 10 1017.2 1017.0 0.0
28/09:00am 17.0 15.5 8.4 57 4.4 SSW 6 11 3 6 1017.1 1016.9 0.0
28/08:30am 15.3 14.2 8.5 64 3.5 WSW 4 6 2 3 1017.0 1016.8 0.0
28/08:00am 12.9 12.4 8.0 72 2.4 CALM 0 0 0 0 1016.7 1016.5 0.0
28/07:30am 11.1 10.8 8.8 86 1.1 CALM 0 0 0 0 1016.5 1016.3 0.0
28/07:00am 8.7 8.3 8.4 98 0.1 CALM 0 0 0 0 1016.1 1015.9 0.0
28/06:30am 7.3 6.5 6.6 95 0.3 CALM 0 0 0 0 1015.8 1015.6 0.0
28/06:00am 7.3 6.5 6.4 94 0.4 CALM 0 0 0 0 1015.4 1015.2 0.0
28/05:30am 7.5 6.3 6.4 93 0.5 NE 2 4 1 2 1015.0 1014.8 0.0
28/05:00am 7.9 7.1 6.7 92 0.6 CALM 0 0 0 0 1014.7 1014.5 0.0
28/04:30am 7.6 6.4 6.4 92 0.5 N 2 4 1 2 1014.7 1014.5 0.0
28/04:00am 8.2 6.6 6.3 88 0.9 N 4 6 2 3 1014.6 1014.4 0.0
28/03:30am 7.9 5.9 6.4 90 0.7 N 6 7 3 4 1014.5 1014.3 0.0
28/03:00am 9.2 7.7 6.6 84 1.2 N 4 6 2 3 1014.4 1014.2 0.0
28/02:30am 10.7 9.5 6.3 74 2.1 S 2 6 1 3 1014.7 1014.5 0.0
28/02:00am 11.6 9.7 6.7 72 2.3 SSW 6 15 3 8 1015.3 1015.1 0.0
28/01:30am 11.6 9.9 6.1 69 2.6 S 4 7 2 4 1015.5 1015.3 0.0
28/01:00am 10.9 8.9 6.3 73 2.2 SW 6 9 3 5 1015.7 1015.5 0.0
28/12:30am 10.9 9.3 6.3 73 2.2 SSW 4 7 2 4 1015.7 1015.5 0.0
28/12:00am 11.9 11.2 7.0 72 2.4 CALM 0 4 0 2 1015.9 1015.7 0.0
 
Date/Time
EST
Temp
°C
App
Temp
°C
Dew
Point
°C
Rel
Hum
%
Delta-T
°C
Wind Press
QNH
hPa
Press
MSL
hPa
Rain since
9am
mm
Dir  Spd
km/h
Gust
km/h
Spd
kts
Gust
kts
27/11:30pm 12.7 11.0 5.8 63 3.2 WSW 4 6 2 3 1015.8 1015.6 0.0
27/11:00pm 13.0 10.9 5.9 62 3.4 SSW 6 11 3 6 1015.9 1015.7 0.0
27/10:30pm 14.0 12.3 5.9 58 3.9 WSW 4 6 2 3 1016.1 1015.9 0.0
27/10:00pm 14.5 12.5 6.1 57 4.0 WSW 6 13 3 7 1016.2 1016.0 0.0
27/09:30pm 14.9 12.4 6.5 57 4.1 SW 9 17 5 9 1016.0 1015.8 0.0
27/09:00pm 14.9 12.3 6.2 56 4.2 SSW 9 17 5 9 1016.1 1015.9 0.0
27/08:30pm 15.0 12.6 6.8 58 4.0 SSW 9 19 5 10 1016.1 1015.9 0.0
27/08:00pm 14.8 13.2 6.4 57 4.1 SSW 4 7 2 4 1015.8 1015.6 0.0
27/07:30pm 15.7 13.8 7.5 58 4.1 SW 7 11 4 6 1015.5 1015.3 0.0
27/07:00pm 16.0 14.4 6.4 53 4.7 SSW 4 6 2 3 1014.9 1014.7 0.0
27/06:30pm 17.4 15.2 6.0 47 5.6 SSW 7 17 4 9 1014.5 1014.3 0.0
27/06:00pm 17.6 15.4 6.2 47 5.6 SSW 7 13 4 7 1014.2 1014.0 0.0
27/05:30pm 18.3 15.8 6.5 46 5.9 SSW 9 17 5 9 1013.7 1013.5 0.0
27/05:00pm 19.9 17.8 6.6 42 6.7 SSW 7 15 4 8 1013.1 1012.9 0.0
27/04:30pm 21.2 17.9 4.7 34 8.1 SW 11 19 6 10 1012.5 1012.3 0.0
27/04:00pm 22.3 19.0 4.8 32 8.7 SW 11 20 6 11 1012.3 1012.0 0.0
27/03:30pm 22.8 19.5 4.8 31 8.9 WSW 11 20 6 11 1012.0 1011.7 0.0
27/03:00pm 22.8 18.9 5.3 32 8.8 W 15 24 8 13 1011.8 1011.5 0.0
27/02:30pm 23.2 21.0 6.1 33 8.7 WSW 7 20 4 11 1011.6 1011.3 0.0
27/02:00pm 22.9 19.4 5.3 32 8.8 W 13 22 7 12 1011.8 1011.5 0.0
27/01:30pm 22.6 19.4 5.1 32 8.7 WSW 11 20 6 11 1012.0 1011.7 0.0
27/01:00pm 22.1 19.8 5.5 34 8.3 WSW 7 11 4 6 1012.5 1012.3 0.0
27/12:30pm 21.3 18.5 5.2 35 8.0 WSW 9 17 5 9 1013.0 1012.8 0.0
27/12:00pm 20.9 18.4 6.4 39 7.3 SW 9 17 5 9 1013.6 1013.4 0.0
27/11:30am 20.4 16.7 4.4 35 7.8 W 13 24 7 13 1014.3 1014.1 0.0
27/11:00am 20.2 16.5 6.2 40 7.0 W 15 24 8 13 1014.6 1014.4 0.0
27/10:30am 19.8 17.1 5.8 40 6.9 SW 9 20 5 11 1014.9 1014.7 0.0
27/10:00am 19.2 16.6 6.3 43 6.4 W 9 20 5 11 1015.0 1014.8 0.0
27/09:30am 18.5 16.4 6.0 44 6.2 NNW 6 11 3 6 1015.3 1015.1 0.0
27/09:00am 18.4 17.3 5.3 42 6.4 CALM 0 4 0 2 1015.5 1015.3 0.0
27/08:30am 16.9 14.7 5.5 47 5.5 SSE 6 6 3 3 1015.2 1015.0 0.0
27/08:00am 16.1 14.0 5.7 50 5.0 S 6 9 3 5 1015.0 1014.8 0.0
27/07:30am 14.9 13.0 6.5 57 4.1 S 6 9 3 5 1014.6 1014.4 0.0
27/07:00am 12.7 12.0 8.6 76 2.0 SSW 2 4 1 2 1014.4 1014.2 0.0
27/06:30am 13.2 11.4 7.0 66 3.0 SW 6 7 3 4 1014.2 1014.0 0.0
27/06:00am 14.1 12.2 6.5 60 3.7 S 6 7 3 4 1013.9 1013.7 0.0
27/05:30am 15.0 12.6 7.1 59 3.9 S 9 19 5 10 1013.5 1013.3 0.0
27/05:00am 14.6 12.8 7.9 64 3.3 SSE 7 11 4 6 1013.3 1013.1 0.0
27/04:30am 15.5 13.6 9.2 66 3.2 S 9 13 5 7 1013.0 1012.8 0.0
27/04:00am 16.7 14.6 9.9 64 3.6 SSW 11 24 6 13 1012.8 1012.6 0.0
27/03:30am 17.6 16.0 11.4 67 3.4 S 11 24 6 13 1012.5 1012.3 0.0
27/03:00am 17.5 17.0 12.8 74 2.6 SSW 7 13 4 7 1012.1 1011.8 0.0
27/02:30am 18.4 18.1 12.6 69 3.2 SW 6 9 3 5 1012.1 1011.8 0.0
27/02:00am 18.9 18.5 13.1 69 3.3 SSW 7 17 4 9 1012.1 1011.8 0.0
27/01:30am 18.0 18.5 14.9 82 1.8 SW 6 9 3 5 1012.4 1012.1 0.0
27/01:00am 19.4 20.3 15.1 76 2.5 SW 4 6 2 3 1012.4 1012.1 0.0
27/12:30am 20.2 21.3 15.6 75 2.7 WSW 4 6 2 3 1012.2 1011.9 0.0
27/12:00am 20.6 22.3 16.2 76 2.7 S 2 4 1 2 1012.2 1011.9 0.0
 
Date/Time
EST
Temp
°C
App
Temp
°C
Dew
Point
°C
Rel
Hum
%
Delta-T
°C
Wind Press
QNH
hPa
Press
MSL
hPa
Rain since
9am
mm
Dir  Spd
km/h
Gust
km/h
Spd
kts
Gust
kts
26/11:30pm 21.4 23.3 17.6 79 2.3 SW 4 7 2 4 1012.1 1011.8 0.0
26/11:00pm 21.7 24.1 18.7 83 1.9 W 4 7 2 4 1012.0 1011.7 0.0
26/10:30pm 21.9 25.0 19.6 87 1.5 W 2 6 1 3 1012.1 1011.8 0.0
26/10:00pm 21.8 25.2 19.4 86 1.5 CALM 0 4 0 2 1012.2 1011.9 0.0
26/09:30pm 21.3 23.4 19.0 87 1.5 N 6 6 3 3 1012.1 1011.8 0.0

Latest Capital City Observations: Canberra | Sydney | Melbourne | Brisbane | Adelaide | Perth | Hobart | Darwin

Other Formats:

Comma delimited format used in spreadsheet applications
http://www.bom.gov.au/fwo/IDQ60901/IDQ60901.94566.axf

JavaScript Object Notation format (JSON) in row-major order
http://www.bom.gov.au/fwo/IDQ60901/IDQ60901.94566.json